Adak Island, Alaska
Current Conditions -  °F | °C
As of 8:16 AM on Thursday 23 Oct 2014 (Local Time) from PADK Reporting Station
Few Clouds Few Clouds  
Wind Chill: 38°   Ceiling: Unl
Heat Index: 46°   Visibility: 10mi
Dew Point: 36°   Wind: 28mph
Humidity: 66%   Direction: 220°SW
Pressure: 30.14"   Gusts: 35mph
Location:  51.88°N, 176.65°W
Report Text: PADK 231716Z AUTO 22024G30KT 10SM FEW050 08/02 A3014 RMK AO1
Loading
Personal Weather Stations






























Interactive Weather Map
Tropical Storm Tracking
New forecast layout! Learn more

10-Day Weather Forecast

Advertisements
Track Severe Weather on mobile